sensor_id;sensor_type;location;lat;lon;timestamp;pressure;altitude;pressure_sealevel;temperature;humidity
77587;BME280;66744;49.716;17.158;2023-04-24T00:00:41;98130.03;;;13.91;66.30
77587;BME280;66744;49.716;17.158;2023-04-24T00:03:43;98128.22;;;13.88;68.53
77587;BME280;66744;49.716;17.158;2023-04-24T00:06:44;98117.69;;;13.86;66.65
77587;BME280;66744;49.716;17.158;2023-04-24T00:09:50;98116.16;;;13.85;67.19
77587;BME280;66744;49.716;17.158;2023-04-24T00:12:51;98117.97;;;13.74;66.63
77587;BME280;66744;49.716;17.158;2023-04-24T00:15:52;98115.31;;;13.65;67.93
77587;BME280;66744;49.716;17.158;2023-04-24T00:18:54;98120.09;;;13.50;70.64
77587;BME280;66744;49.716;17.158;2023-04-24T00:21:55;98112.00;;;13.31;69.75
77587;BME280;66744;49.716;17.158;2023-04-24T00:24:57;98112.00;;;13.31;68.06
77587;BME280;66744;49.716;17.158;2023-04-24T00:27:58;98104.00;;;13.33;67.62
77587;BME280;66744;49.716;17.158;2023-04-24T00:30:59;98107.34;;;13.38;66.69
77587;BME280;66744;49.716;17.158;2023-04-24T00:34:01;98100.03;;;13.34;65.59
77587;BME280;66744;49.716;17.158;2023-04-24T00:37:03;98093.91;;;13.30;68.08
77587;BME280;66744;49.716;17.158;2023-04-24T00:40:05;98097.63;;;13.27;67.35
77587;BME280;66744;49.716;17.158;2023-04-24T00:43:07;98100.28;;;13.22;67.80
77587;BME280;66744;49.716;17.158;2023-04-24T00:46:08;98099.66;;;13.12;67.25
77587;BME280;66744;49.716;17.158;2023-04-24T00:49:09;98099.41;;;13.01;66.82
77587;BME280;66744;49.716;17.158;2023-04-24T00:52:11;98088.28;;;12.96;68.22
77587;BME280;66744;49.716;17.158;2023-04-24T00:55:13;98089.41;;;12.89;67.43
77587;BME280;66744;49.716;17.158;2023-04-24T00:58:14;98091.00;;;12.81;68.43
77587;BME280;66744;49.716;17.158;2023-04-24T01:01:15;98087.88;;;12.73;70.36
77587;BME280;66744;49.716;17.158;2023-04-24T01:04:17;98092.97;;;12.66;72.09
77587;BME280;66744;49.716;17.158;2023-04-24T01:07:20;98081.25;;;12.56;70.54
77587;BME280;66744;49.716;17.158;2023-04-24T01:10:22;98083.91;;;12.51;68.85
77587;BME280;66744;49.716;17.158;2023-04-24T01:13:24;98073.94;;;12.53;67.43
77587;BME280;66744;49.716;17.158;2023-04-24T01:16:25;98078.03;;;12.58;65.87
77587;BME280;66744;49.716;17.158;2023-04-24T01:19:28;98086.59;;;12.60;66.33
77587;BME280;66744;49.716;17.158;2023-04-24T01:22:29;98087.84;;;12.59;66.64
77587;BME280;66744;49.716;17.158;2023-04-24T01:25:31;98082.50;;;12.55;66.47
77587;BME280;66744;49.716;17.158;2023-04-24T01:28:32;98093.41;;;12.50;65.70
77587;BME280;66744;49.716;17.158;2023-04-24T01:31:34;98092.66;;;12.49;67.25
77587;BME280;66744;49.716;17.158;2023-04-24T01:34:37;98093.66;;;12.37;68.18
77587;BME280;66744;49.716;17.158;2023-04-24T01:37:38;98091.41;;;12.26;67.87
77587;BME280;66744;49.716;17.158;2023-04-24T01:40:39;98090.25;;;12.18;70.94
77587;BME280;66744;49.716;17.158;2023-04-24T01:43:41;98089.53;;;12.09;70.04
77587;BME280;66744;49.716;17.158;2023-04-24T01:46:42;98087.44;;;12.04;71.07
77587;BME280;66744;49.716;17.158;2023-04-24T01:49:43;98077.84;;;11.99;71.60
77587;BME280;66744;49.716;17.158;2023-04-24T01:52:47;98076.63;;;11.91;72.65
77587;BME280;66744;49.716;17.158;2023-04-24T01:55:48;98074.53;;;11.86;71.73
77587;BME280;66744;49.716;17.158;2023-04-24T01:58:52;98073.19;;;11.82;72.43
77587;BME280;66744;49.716;17.158;2023-04-24T02:01:55;98070.63;;;11.69;71.79
77587;BME280;66744;49.716;17.158;2023-04-24T02:04:57;98073.28;;;11.54;72.31
77587;BME280;66744;49.716;17.158;2023-04-24T02:07:58;98076.81;;;11.46;73.87
77587;BME280;66744;49.716;17.158;2023-04-24T02:10:59;98064.78;;;11.34;73.78
77587;BME280;66744;49.716;17.158;2023-04-24T02:14:02;98072.63;;;11.18;75.16
77587;BME280;66744;49.716;17.158;2023-04-24T02:17:03;98074.47;;;11.02;74.25
77587;BME280;66744;49.716;17.158;2023-04-24T02:20:06;98071.59;;;10.97;75.37
77587;BME280;66744;49.716;17.158;2023-04-24T02:23:07;98065.31;;;11.05;75.98
77587;BME280;66744;49.716;17.158;2023-04-24T02:26:09;98049.56;;;11.15;74.68
77587;BME280;66744;49.716;17.158;2023-04-24T02:29:10;98044.34;;;11.26;75.40
77587;BME280;66744;49.716;17.158;2023-04-24T02:32:11;98054.84;;;11.37;74.16
77587;BME280;66744;49.716;17.158;2023-04-24T02:35:12;98041.06;;;11.46;73.49
77587;BME280;66744;49.716;17.158;2023-04-24T02:38:14;98035.81;;;11.57;73.33
77587;BME280;66744;49.716;17.158;2023-04-24T02:41:17;98045.13;;;11.59;72.86
77587;BME280;66744;49.716;17.158;2023-04-24T02:44:18;98037.00;;;11.65;72.65
77587;BME280;66744;49.716;17.158;2023-04-24T02:47:20;98030.88;;;11.70;73.45
77587;BME280;66744;49.716;17.158;2023-04-24T02:50:21;98024.16;;;11.71;73.12
77587;BME280;66744;49.716;17.158;2023-04-24T02:53:22;98029.94;;;11.73;71.10
77587;BME280;66744;49.716;17.158;2023-04-24T02:56:24;98030.25;;;11.75;71.36
77587;BME280;66744;49.716;17.158;2023-04-24T02:59:26;98027.69;;;11.72;72.08
77587;BME280;66744;49.716;17.158;2023-04-24T03:02:28;98027.03;;;11.67;73.05
77587;BME280;66744;49.716;17.158;2023-04-24T03:05:30;98026.75;;;11.65;73.64
77587;BME280;66744;49.716;17.158;2023-04-24T03:08:32;98026.03;;;11.56;73.21
77587;BME280;66744;49.716;17.158;2023-04-24T03:11:33;98027.28;;;11.55;73.13
77587;BME280;66744;49.716;17.158;2023-04-24T03:14:35;98025.59;;;11.57;72.81
77587;BME280;66744;49.716;17.158;2023-04-24T03:17:36;98034.88;;;11.60;73.22
77587;BME280;66744;49.716;17.158;2023-04-24T03:20:37;98030.31;;;11.57;73.16
77587;BME280;66744;49.716;17.158;2023-04-24T03:23:39;98033.84;;;11.57;74.04
77587;BME280;66744;49.716;17.158;2023-04-24T03:26:40;98023.88;;;11.60;72.42
77587;BME280;66744;49.716;17.158;2023-04-24T03:29:57;98033.19;;;11.62;72.65
77587;BME280;66744;49.716;17.158;2023-04-24T03:33:06;98036.53;;;11.66;71.59
77587;BME280;66744;49.716;17.158;2023-04-24T03:36:12;98033.31;;;11.68;72.18
77587;BME280;66744;49.716;17.158;2023-04-24T03:39:15;98028.47;;;11.63;71.80
77587;BME280;66744;49.716;17.158;2023-04-24T03:42:23;98036.88;;;11.59;70.08
77587;BME280;66744;49.716;17.158;2023-04-24T03:45:29;98041.16;;;11.60;70.06
77587;BME280;66744;49.716;17.158;2023-04-24T03:48:31;98037.34;;;11.58;70.55
77587;BME280;66744;49.716;17.158;2023-04-24T03:51:33;98040.56;;;11.56;70.20
77587;BME280;66744;49.716;17.158;2023-04-24T03:54:46;98039.34;;;11.57;71.22
77587;BME280;66744;49.716;17.158;2023-04-24T03:57:47;98042.66;;;11.61;71.88
77587;BME280;66744;49.716;17.158;2023-04-24T04:00:55;98049.97;;;11.64;70.60
77587;BME280;66744;49.716;17.158;2023-04-24T04:04:17;98047.06;;;11.68;70.82
77587;BME280;66744;49.716;17.158;2023-04-24T04:07:19;98049.97;;;11.74;69.67
77587;BME280;66744;49.716;17.158;2023-04-24T04:10:21;98053.50;;;11.74;70.80
77587;BME280;66744;49.716;17.158;2023-04-24T04:13:22;98054.25;;;11.75;69.88
77587;BME280;66744;49.716;17.158;2023-04-24T04:16:24;98053.59;;;11.80;68.28
77587;BME280;66744;49.716;17.158;2023-04-24T04:19:30;98061.25;;;11.85;69.90
77587;BME280;66744;49.716;17.158;2023-04-24T04:22:32;98054.31;;;11.89;68.97
77587;BME280;66744;49.716;17.158;2023-04-24T04:25:35;98059.00;;;11.98;71.43
77587;BME280;66744;49.716;17.158;2023-04-24T04:28:37;98061.13;;;12.03;71.82
77587;BME280;66744;49.716;17.158;2023-04-24T04:31:40;98059.25;;;12.09;73.66
77587;BME280;66744;49.716;17.158;2023-04-24T04:34:45;98063.81;;;12.12;71.84
77587;BME280;66744;49.716;17.158;2023-04-24T04:37:47;98052.91;;;12.17;72.95
77587;BME280;66744;49.716;17.158;2023-04-24T04:41:08;98059.13;;;12.27;73.86
77587;BME280;66744;49.716;17.158;2023-04-24T04:44:10;98051.41;;;12.40;73.60
77587;BME280;66744;49.716;17.158;2023-04-24T04:47:12;98050.56;;;12.49;74.74
77587;BME280;66744;49.716;17.158;2023-04-24T04:50:16;98046.78;;;12.61;73.56
77587;BME280;66744;49.716;17.158;2023-04-24T04:53:20;98049.66;;;12.66;75.05
77587;BME280;66744;49.716;17.158;2023-04-24T04:56:21;98050.88;;;12.65;75.34
77587;BME280;66744;49.716;17.158;2023-04-24T04:59:24;98051.19;;;12.67;75.60
77587;BME280;66744;49.716;17.158;2023-04-24T05:02:32;98054.97;;;12.70;75.29
77587;BME280;66744;49.716;17.158;2023-04-24T05:05:33;98052.59;;;12.77;74.94
77587;BME280;66744;49.716;17.158;2023-04-24T05:08:34;98052.16;;;12.79;76.02
77587;BME280;66744;49.716;17.158;2023-04-24T05:11:36;98048.44;;;12.82;74.65
77587;BME280;66744;49.716;17.158;2023-04-24T05:14:40;98051.19;;;12.82;74.88
77587;BME280;66744;49.716;17.158;2023-04-24T05:17:42;98051.19;;;12.82;73.86
77587;BME280;66744;49.716;17.158;2023-04-24T05:20:44;98058.03;;;12.87;74.71
77587;BME280;66744;49.716;17.158;2023-04-24T05:23:46;98052.06;;;12.88;74.03
77587;BME280;66744;49.716;17.158;2023-04-24T05:26:51;98051.88;;;12.92;74.35
77587;BME280;66744;49.716;17.158;2023-04-24T05:29:58;98045.59;;;12.91;74.67
77587;BME280;66744;49.716;17.158;2023-04-24T05:32:59;98047.31;;;12.89;74.67
77587;BME280;66744;49.716;17.158;2023-04-24T05:36:00;98051.66;;;12.80;74.14
77587;BME280;66744;49.716;17.158;2023-04-24T05:39:02;98045.75;;;12.73;74.74
77587;BME280;66744;49.716;17.158;2023-04-24T05:42:05;98056.78;;;12.73;73.54
77587;BME280;66744;49.716;17.158;2023-04-24T05:45:07;98051.47;;;12.84;74.36
77587;BME280;66744;49.716;17.158;2023-04-24T05:48:09;98046.06;;;12.90;72.88
77587;BME280;66744;49.716;17.158;2023-04-24T05:51:11;98046.25;;;13.01;73.11
77587;BME280;66744;49.716;17.158;2023-04-24T05:54:13;98039.50;;;13.02;73.35
77587;BME280;66744;49.716;17.158;2023-04-24T05:57:15;98045.50;;;13.00;72.91
77587;BME280;66744;49.716;17.158;2023-04-24T06:00:25;98045.28;;;13.04;73.02
77587;BME280;66744;49.716;17.158;2023-04-24T06:03:35;98051.56;;;13.04;73.03
77587;BME280;66744;49.716;17.158;2023-04-24T06:06:38;98043.91;;;13.08;72.99
77587;BME280;66744;49.716;17.158;2023-04-24T06:09:40;98042.19;;;13.11;72.64
77587;BME280;66744;49.716;17.158;2023-04-24T06:12:42;98042.88;;;13.20;72.55
77587;BME280;66744;49.716;17.158;2023-04-24T06:15:49;98039.53;;;13.31;71.99
77587;BME280;66744;49.716;17.158;2023-04-24T06:18:56;98046.56;;;13.32;71.99
77587;BME280;66744;49.716;17.158;2023-04-24T06:21:58;98051.50;;;13.28;71.04
77587;BME280;66744;49.716;17.158;2023-04-24T06:25:00;98044.56;;;13.32;71.91
77587;BME280;66744;49.716;17.158;2023-04-24T06:28:01;98046.84;;;13.34;72.28
77587;BME280;66744;49.716;17.158;2023-04-24T06:31:04;98054.75;;;13.41;70.95
77587;BME280;66744;49.716;17.158;2023-04-24T06:34:07;98043.31;;;13.33;71.44
77587;BME280;66744;49.716;17.158;2023-04-24T06:37:08;98040.88;;;13.35;70.35
77587;BME280;66744;49.716;17.158;2023-04-24T06:40:09;98037.78;;;13.48;70.21
77587;BME280;66744;49.716;17.158;2023-04-24T06:43:11;98036.34;;;13.53;70.18
77587;BME280;66744;49.716;17.158;2023-04-24T06:46:12;98031.88;;;13.55;69.68
77587;BME280;66744;49.716;17.158;2023-04-24T06:49:13;98029.38;;;13.57;70.09
77587;BME280;66744;49.716;17.158;2023-04-24T06:52:16;98031.75;;;13.64;70.29
77587;BME280;66744;49.716;17.158;2023-04-24T06:55:18;98024.25;;;13.65;69.70
77587;BME280;66744;49.716;17.158;2023-04-24T06:58:19;98025.97;;;13.62;70.01
77587;BME280;66744;49.716;17.158;2023-04-24T07:01:20;98017.19;;;13.64;68.72
77587;BME280;66744;49.716;17.158;2023-04-24T07:04:21;98028.81;;;13.68;68.73
77587;BME280;66744;49.716;17.158;2023-04-24T07:07:22;98030.03;;;13.67;69.47
77587;BME280;66744;49.716;17.158;2023-04-24T07:10:24;98024.06;;;13.68;69.62
77587;BME280;66744;49.716;17.158;2023-04-24T07:13:28;98020.41;;;13.77;69.88
77587;BME280;66744;49.716;17.158;2023-04-24T07:16:29;98023.94;;;13.77;70.63
77587;BME280;66744;49.716;17.158;2023-04-24T07:19:31;98022.00;;;13.83;70.16
77587;BME280;66744;49.716;17.158;2023-04-24T07:22:32;98018.28;;;13.86;69.49
77587;BME280;66744;49.716;17.158;2023-04-24T07:25:33;98014.75;;;13.86;69.65
77587;BME280;66744;49.716;17.158;2023-04-24T07:28:35;98012.75;;;13.86;69.58
77587;BME280;66744;49.716;17.158;2023-04-24T07:31:36;98011.34;;;13.76;68.40
77587;BME280;66744;49.716;17.158;2023-04-24T07:34:37;98016.81;;;13.71;70.49
77587;BME280;66744;49.716;17.158;2023-04-24T07:37:38;98017.56;;;13.71;70.59
77587;BME280;66744;49.716;17.158;2023-04-24T07:40:39;98014.59;;;13.75;70.62
77587;BME280;66744;49.716;17.158;2023-04-24T07:43:41;98019.16;;;13.78;70.00
77587;BME280;66744;49.716;17.158;2023-04-24T07:46:43;98010.19;;;13.83;70.02
77587;BME280;66744;49.716;17.158;2023-04-24T07:49:44;98013.59;;;13.93;70.25
77587;BME280;66744;49.716;17.158;2023-04-24T07:52:48;98020.69;;;13.99;69.70
77587;BME280;66744;49.716;17.158;2023-04-24T07:55:49;98020.50;;;14.03;70.98
77587;BME280;66744;49.716;17.158;2023-04-24T07:58:50;98021.53;;;14.05;69.61
77587;BME280;66744;49.716;17.158;2023-04-24T08:01:52;98025.41;;;14.13;69.41
77587;BME280;66744;49.716;17.158;2023-04-24T08:04:55;98022.72;;;14.19;69.24
77587;BME280;66744;49.716;17.158;2023-04-24T08:07:56;98022.44;;;14.17;68.11
77587;BME280;66744;49.716;17.158;2023-04-24T08:10:57;98017.13;;;14.13;69.40
77587;BME280;66744;49.716;17.158;2023-04-24T08:13:59;98014.56;;;14.10;69.32
77587;BME280;66744;49.716;17.158;2023-04-24T08:17:00;98020.72;;;14.19;68.96
77587;BME280;66744;49.716;17.158;2023-04-24T08:20:05;98013.31;;;14.31;68.49
77587;BME280;66744;49.716;17.158;2023-04-24T08:23:11;98006.09;;;14.33;68.34
77587;BME280;66744;49.716;17.158;2023-04-24T08:26:12;98017.31;;;14.30;68.12
77587;BME280;66744;49.716;17.158;2023-04-24T08:29:13;98016.56;;;14.29;68.10
77587;BME280;66744;49.716;17.158;2023-04-24T08:32:15;98009.19;;;14.41;68.16
77587;BME280;66744;49.716;17.158;2023-04-24T08:35:16;98013.03;;;14.49;67.33
77587;BME280;66744;49.716;17.158;2023-04-24T08:38:18;98016.63;;;14.55;67.97
77587;BME280;66744;49.716;17.158;2023-04-24T08:41:19;98009.38;;;14.58;68.12
77587;BME280;66744;49.716;17.158;2023-04-24T08:44:20;98018.66;;;14.55;68.36
77587;BME280;66744;49.716;17.158;2023-04-24T08:47:22;98014.97;;;14.63;67.81
77587;BME280;66744;49.716;17.158;2023-04-24T08:50:25;98014.00;;;14.66;66.50
77587;BME280;66744;49.716;17.158;2023-04-24T08:53:27;98018.91;;;14.57;65.76
77587;BME280;66744;49.716;17.158;2023-04-24T08:56:28;98022.44;;;14.57;66.23
77587;BME280;66744;49.716;17.158;2023-04-24T08:59:31;98022.91;;;14.56;66.79
77587;BME280;66744;49.716;17.158;2023-04-24T09:02:32;98020.66;;;14.54;66.28
77587;BME280;66744;49.716;17.158;2023-04-24T09:05:35;98026.66;;;14.53;66.37
77587;BME280;66744;49.716;17.158;2023-04-24T09:08:38;98027.84;;;14.46;65.80
77587;BME280;66744;49.716;17.158;2023-04-24T09:11:42;98028.88;;;14.49;65.71
77587;BME280;66744;49.716;17.158;2023-04-24T09:14:44;98037.13;;;14.43;65.97
77587;BME280;66744;49.716;17.158;2023-04-24T09:17:46;98027.50;;;14.38;65.30
77587;BME280;66744;49.716;17.158;2023-04-24T09:24:05;98034.75;;;14.36;67.37
77587;BME280;66744;49.716;17.158;2023-04-24T09:27:07;98035.63;;;14.27;69.65
77587;BME280;66744;49.716;17.158;2023-04-24T09:30:08;98036.81;;;14.21;71.16
77587;BME280;66744;49.716;17.158;2023-04-24T09:33:14;98033.69;;;14.13;72.26
77587;BME280;66744;49.716;17.158;2023-04-24T09:36:17;98030.19;;;14.13;73.25
77587;BME280;66744;49.716;17.158;2023-04-24T09:39:19;98026.25;;;14.19;74.10
77587;BME280;66744;49.716;17.158;2023-04-24T09:42:28;98025.00;;;14.20;72.63
77587;BME280;66744;49.716;17.158;2023-04-24T09:45:38;98029.00;;;14.19;70.94
77587;BME280;66744;49.716;17.158;2023-04-24T09:48:40;98025.19;;;14.17;70.83
77587;BME280;66744;49.716;17.158;2023-04-24T09:51:42;98025.41;;;14.13;72.08
77587;BME280;66744;49.716;17.158;2023-04-24T09:54:52;98028.38;;;14.10;70.63
77587;BME280;66744;49.716;17.158;2023-04-24T09:57:56;98024.03;;;14.03;70.01
77587;BME280;66744;49.716;17.158;2023-04-24T10:00:57;98030.31;;;14.04;69.92
77587;BME280;66744;49.716;17.158;2023-04-24T10:03:59;98030.78;;;14.02;69.28
77587;BME280;66744;49.716;17.158;2023-04-24T10:07:03;98042.66;;;14.08;69.62
77587;BME280;66744;49.716;17.158;2023-04-24T10:10:10;98030.31;;;14.04;68.55
77587;BME280;66744;49.716;17.158;2023-04-24T10:13:13;98029.03;;;14.05;68.26
77587;BME280;66744;49.716;17.158;2023-04-24T10:16:16;98026.84;;;14.09;69.36
77587;BME280;66744;49.716;17.158;2023-04-24T10:19:17;98021.53;;;14.05;69.92
77587;BME280;66744;49.716;17.158;2023-04-24T10:22:22;98034.88;;;14.07;69.74
77587;BME280;66744;49.716;17.158;2023-04-24T10:25:27;98033.13;;;14.09;70.30
77587;BME280;66744;49.716;17.158;2023-04-24T10:28:30;98034.56;;;14.05;71.80
77587;BME280;66744;49.716;17.158;2023-04-24T10:31:33;98034.72;;;14.16;71.86
77587;BME280;66744;49.716;17.158;2023-04-24T10:34:35;98035.06;;;14.23;71.09
77587;BME280;66744;49.716;17.158;2023-04-24T10:37:39;98035.13;;;14.29;70.36
77587;BME280;66744;49.716;17.158;2023-04-24T10:40:42;98035.00;;;14.18;69.98
77587;BME280;66744;49.716;17.158;2023-04-24T10:43:43;98036.47;;;14.13;70.47
77587;BME280;66744;49.716;17.158;2023-04-24T10:46:46;98033.41;;;14.11;69.84
77587;BME280;66744;49.716;17.158;2023-04-24T10:49:51;98033.97;;;14.15;70.83
77587;BME280;66744;49.716;17.158;2023-04-24T10:52:52;98041.09;;;14.22;70.90
77587;BME280;66744;49.716;17.158;2023-04-24T10:56:15;98036.53;;;14.19;69.27
77587;BME280;66744;49.716;17.158;2023-04-24T10:59:39;98038.78;;;14.00;71.21
77587;BME280;66744;49.716;17.158;2023-04-24T11:02:42;98033.78;;;13.84;70.89
77587;BME280;66744;49.716;17.158;2023-04-24T11:10:00;98042.84;;;13.84;70.22
77587;BME280;66744;49.716;17.158;2023-04-24T11:13:23;98039.41;;;13.89;70.27
77587;BME280;66744;49.716;17.158;2023-04-24T11:20:05;98040.28;;;13.81;71.67
77587;BME280;66744;49.716;17.158;2023-04-24T11:23:36;98033.63;;;13.73;72.54
77587;BME280;66744;49.716;17.158;2023-04-24T11:26:41;98038.88;;;13.71;71.49
77587;BME280;66744;49.716;17.158;2023-04-24T11:30:02;98045.72;;;13.75;70.80
77587;BME280;66744;49.716;17.158;2023-04-24T11:33:25;98040.38;;;13.72;70.39
77587;BME280;66744;49.716;17.158;2023-04-24T11:36:26;98046.97;;;13.74;71.71
77587;BME280;66744;49.716;17.158;2023-04-24T11:39:27;98050.88;;;13.68;71.42
77587;BME280;66744;49.716;17.158;2023-04-24T11:42:59;98049.75;;;13.74;70.87
77587;BME280;66744;49.716;17.158;2023-04-24T11:46:42;98044.88;;;13.69;72.49
77587;BME280;66744;49.716;17.158;2023-04-24T11:50:10;98051.44;;;13.72;73.18
77587;BME280;66744;49.716;17.158;2023-04-24T11:53:25;98045.38;;;13.68;74.11
77587;BME280;66744;49.716;17.158;2023-04-24T11:56:35;98048.97;;;13.74;73.83
77587;BME280;66744;49.716;17.158;2023-04-24T11:59:44;98046.47;;;13.76;73.60
77587;BME280;66744;49.716;17.158;2023-04-24T12:02:49;98049.09;;;13.65;73.46
77587;BME280;66744;49.716;17.158;2023-04-24T12:06:07;98049.78;;;13.60;73.44
77587;BME280;66744;49.716;17.158;2023-04-24T12:09:09;98054.16;;;13.52;75.08
77587;BME280;66744;49.716;17.158;2023-04-24T12:12:17;98044.16;;;13.40;74.42
77587;BME280;66744;49.716;17.158;2023-04-24T12:15:19;98044.66;;;13.38;74.13
77587;BME280;66744;49.716;17.158;2023-04-24T12:18:24;98043.50;;;13.45;74.23
77587;BME280;66744;49.716;17.158;2023-04-24T12:21:26;98047.31;;;13.47;74.15
77587;BME280;66744;49.716;17.158;2023-04-24T12:24:29;98042.75;;;13.44;74.97
77587;BME280;66744;49.716;17.158;2023-04-24T12:27:32;98042.00;;;13.29;76.23
77587;BME280;66744;49.716;17.158;2023-04-24T12:30:48;98048.19;;;13.09;77.44
77587;BME280;66744;49.716;17.158;2023-04-24T12:33:51;98052.72;;;12.98;78.72
77587;BME280;66744;49.716;17.158;2023-04-24T12:36:52;98051.03;;;13.00;79.24
77587;BME280;66744;49.716;17.158;2023-04-24T12:40:08;98042.34;;;13.07;80.78
77587;BME280;66744;49.716;17.158;2023-04-24T12:43:20;98042.38;;;13.22;80.19
77587;BME280;66744;49.716;17.158;2023-04-24T12:46:23;98043.13;;;13.37;78.74
77587;BME280;66744;49.716;17.158;2023-04-24T12:49:25;98040.94;;;13.41;79.20
77587;BME280;66744;49.716;17.158;2023-04-24T12:52:28;98037.88;;;13.54;78.76
77587;BME280;66744;49.716;17.158;2023-04-24T12:55:30;98042.22;;;13.60;78.23
77587;BME280;66744;49.716;17.158;2023-04-24T12:58:31;98040.88;;;13.70;78.75
77587;BME280;66744;49.716;17.158;2023-04-24T13:01:32;98035.28;;;13.65;77.86
77587;BME280;66744;49.716;17.158;2023-04-24T13:04:34;98031.28;;;13.66;77.94
77587;BME280;66744;49.716;17.158;2023-04-24T13:07:35;98030.59;;;13.71;78.51
77587;BME280;66744;49.716;17.158;2023-04-24T13:10:36;98037.09;;;13.68;78.16
77587;BME280;66744;49.716;17.158;2023-04-24T13:13:37;98034.28;;;13.82;77.94
77587;BME280;66744;49.716;17.158;2023-04-24T13:16:39;98026.06;;;13.88;77.03
77587;BME280;66744;49.716;17.158;2023-04-24T13:19:41;98024.66;;;13.93;77.89
77587;BME280;66744;49.716;17.158;2023-04-24T13:22:43;98023.03;;;13.86;78.07
77587;BME280;66744;49.716;17.158;2023-04-24T13:25:45;98031.88;;;13.90;77.55
77587;BME280;66744;49.716;17.158;2023-04-24T13:28:51;98027.59;;;13.89;77.42
77587;BME280;66744;49.716;17.158;2023-04-24T13:31:52;98017.53;;;13.86;77.50
77587;BME280;66744;49.716;17.158;2023-04-24T13:34:57;98014.34;;;13.93;78.40
77587;BME280;66744;49.716;17.158;2023-04-24T13:37:58;98015.38;;;13.96;77.48
77587;BME280;66744;49.716;17.158;2023-04-24T13:41:01;98019.78;;;14.08;78.34
77587;BME280;66744;49.716;17.158;2023-04-24T13:44:03;98006.69;;;14.03;75.00
77587;BME280;66744;49.716;17.158;2023-04-24T13:47:05;98008.69;;;14.02;76.14
77587;BME280;66744;49.716;17.158;2023-04-24T13:50:10;98008.97;;;14.04;75.99
77587;BME280;66744;49.716;17.158;2023-04-24T13:53:12;98013.94;;;14.20;74.99
77587;BME280;66744;49.716;17.158;2023-04-24T13:56:14;98017.59;;;14.32;73.62
77587;BME280;66744;49.716;17.158;2023-04-24T13:59:15;98013.78;;;14.29;74.14
77587;BME280;66744;49.716;17.158;2023-04-24T14:02:16;98009.25;;;14.26;74.42
77587;BME280;66744;49.716;17.158;2023-04-24T14:05:18;98008.41;;;14.20;74.67
77587;BME280;66744;49.716;17.158;2023-04-24T14:08:21;98005.59;;;14.15;73.82
77587;BME280;66744;49.716;17.158;2023-04-24T14:11:22;98005.84;;;14.17;74.97
77587;BME280;66744;49.716;17.158;2023-04-24T14:14:26;98002.47;;;14.27;74.05
77587;BME280;66744;49.716;17.158;2023-04-24T14:17:28;98003.19;;;14.42;74.17
77587;BME280;66744;49.716;17.158;2023-04-24T14:20:29;97996.69;;;14.45;74.05
77587;BME280;66744;49.716;17.158;2023-04-24T14:23:30;97995.66;;;14.43;73.50
77587;BME280;66744;49.716;17.158;2023-04-24T14:26:32;97993.09;;;14.39;74.26
77587;BME280;66744;49.716;17.158;2023-04-24T14:29:33;97996.19;;;14.47;73.77
77587;BME280;66744;49.716;17.158;2023-04-24T14:32:34;98002.22;;;14.45;72.90
77587;BME280;66744;49.716;17.158;2023-04-24T14:35:36;97995.81;;;14.60;72.82
77587;BME280;66744;49.716;17.158;2023-04-24T14:38:37;97987.13;;;14.67;71.32
77587;BME280;66744;49.716;17.158;2023-04-24T14:41:38;97985.13;;;14.73;69.38
77587;BME280;66744;49.716;17.158;2023-04-24T14:44:40;97991.88;;;14.92;69.43
77587;BME280;66744;49.716;17.158;2023-04-24T14:47:41;97991.13;;;15.23;67.30
77587;BME280;66744;49.716;17.158;2023-04-24T14:50:42;97985.84;;;15.56;66.39
77587;BME280;66744;49.716;17.158;2023-04-24T14:53:43;97986.94;;;15.70;64.97
77587;BME280;66744;49.716;17.158;2023-04-24T14:56:47;97989.47;;;15.68;64.30
77587;BME280;66744;49.716;17.158;2023-04-24T14:59:48;97989.69;;;15.64;65.64
77587;BME280;66744;49.716;17.158;2023-04-24T15:02:49;97989.28;;;15.45;65.21
77587;BME280;66744;49.716;17.158;2023-04-24T15:05:51;97997.44;;;15.23;65.92
77587;BME280;66744;49.716;17.158;2023-04-24T15:08:52;97987.22;;;15.09;66.73
77587;BME280;66744;49.716;17.158;2023-04-24T15:11:56;97995.94;;;14.96;67.33
77587;BME280;66744;49.716;17.158;2023-04-24T15:14:58;97993.47;;;15.04;67.32
77587;BME280;66744;49.716;17.158;2023-04-24T15:18:00;97988.63;;;14.93;67.41
77587;BME280;66744;49.716;17.158;2023-04-24T15:21:01;97995.13;;;14.90;68.43
77587;BME280;66744;49.716;17.158;2023-04-24T15:24:17;97994.53;;;14.81;69.31
77587;BME280;66744;49.716;17.158;2023-04-24T15:27:45;97993.16;;;14.71;68.46
77587;BME280;66744;49.716;17.158;2023-04-24T15:30:56;97997.41;;;14.66;68.76
77587;BME280;66744;49.716;17.158;2023-04-24T15:34:26;97984.28;;;14.61;70.06
77587;BME280;66744;49.716;17.158;2023-04-24T15:37:48;97998.03;;;14.56;69.15
77587;BME280;66744;49.716;17.158;2023-04-24T15:40:53;98003.03;;;14.52;70.58
77587;BME280;66744;49.716;17.158;2023-04-24T15:44:00;98001.50;;;14.51;70.85
77587;BME280;66744;49.716;17.158;2023-04-24T15:47:12;97996.44;;;14.49;70.43
77587;BME280;66744;49.716;17.158;2023-04-24T15:50:20;98000.91;;;14.41;69.36
77587;BME280;66744;49.716;17.158;2023-04-24T15:53:31;98003.44;;;14.44;70.36
77587;BME280;66744;49.716;17.158;2023-04-24T15:56:33;98000.69;;;14.44;70.87
77587;BME280;66744;49.716;17.158;2023-04-24T15:59:37;97998.13;;;14.41;70.36
77587;BME280;66744;49.716;17.158;2023-04-24T16:02:41;98002.69;;;14.44;70.14
77587;BME280;66744;49.716;17.158;2023-04-24T16:05:42;98006.22;;;14.44;71.05
77587;BME280;66744;49.716;17.158;2023-04-24T16:08:44;98004.91;;;14.40;70.08
77587;BME280;66744;49.716;17.158;2023-04-24T16:11:48;98004.41;;;14.41;70.74